This demonstration page uses our WeatherBlox Daily Observations layout. Learn more.

36.17497, -115.13722

Hourly Observations for January 22, 2018

Temp ( °F °C ) Dew Point ( °F °C ) Humidity (%) Winds ( mph kmh ) Pressure ( in mb ) Visibility ( mi km ) Precip ( " mm )
12:53 am 00:53 Clear 37 2.8 22 -5.6 54 54 NW 6 9 30.38 1029 10 16.0934 0 0
1:53 am 01:53 Clear 37 2.8 22 -5.6 54 54 NW 6 9 30.38 1029 10 16.0934 0 0
2:53 am 02:53 Clear 37 2.8 22 -5.6 54 54 NW 7 11 30.37 1029 10 16.0934 0 0
3:53 am 03:53 Clear 37 2.8 22 -5.6 54 54 W 5 7 30.36 1028 10 16.0934 0 0
4:53 am 04:53 Clear 34 1.1 23 -5 64 64 E 5 7 30.38 1029 10 16.0934 0 0
5:53 am 05:53 Clear 36 2.2 23 -5 59 59 NW 3 6 30.4 1029 10 16.0934 0 0
6:53 am 06:53 Sunny 37 2.8 20 -6.7 50 50 N 6 9 30.4 1030 10 16.0934 0 0
7:53 am 07:53 Sunny 39 3.9 21 -6.1 48 48 Calm 30.41 1030 10 16.0934 0 0
8:53 am 08:53 Sunny 41 5 22 -5.6 47 47 Calm 30.42 1030 10 16.0934 0 0
9:53 am 09:53 Sunny 45 7.2 21 -6.1 39 39 Calm 30.43 1030 10 16.0934 0 0
10:53 am 10:53 Sunny 47 8.3 21 -6.1 36 36 SSE 3 6 30.4 1030 10 16.0934 0 0
11:53 am 11:53 Sunny 49 9.4 20 -6.7 32 32 SE 5 7 30.36 1028 10 16.0934 0 0
12:53 pm 12:53 Sunny 51 10.6 19 -7.2 28 28 SE 6 9 30.33 1027 10 16.0934 0 0
1:53 pm 13:53 Sunny 52 11.1 20 -6.7 28 28 E 6 9 30.32 1027 10 16.0934 0 0
2:53 pm 14:53 Sunny 53 11.7 19 -7.2 26 26 Calm 30.3 1026 10 16.0934 0 0
3:53 pm 15:53 Sunny 53 11.7 19 -7.2 26 26 E 6 9 30.3 1026 10 16.0934 0 0
4:53 pm 16:53 Sunny 51 10.6 18 -7.8 27 27 E 3 6 30.3 1026 10 16.0934 0 0
5:53 pm 17:53 Clear 50 10 18 -7.8 28 28 Calm 30.3 1026 10 16.0934 0 0
6:53 pm 18:53 Clear 47 8.3 21 -6.1 36 36 Calm 30.31 1026 10 16.0934 0 0
7:53 pm 19:53 Clear 46 7.8 22 -5.6 38 38 NW 5 7 30.32 1027 10 16.0934 0 0
8:53 pm 20:53 Clear 45 7.2 25 -3.9 46 46 WNW 5 7 30.33 1027 10 16.0934 0 0
9:53 pm 21:53 Clear 44 6.7 26 -3.3 49 49 WNW 3 6 30.32 1027 10 16.0934 0 0
10:53 pm 22:53 Clear 42 5.6 26 -3.3 53 53 Calm 30.33 1027 10 16.0934 0 0
11:53 pm 23:53 Clear 41 5 25 -3.9 53 53 NW 5 7 30.32 1027 10 16.0934 0 0

Powered by AerisWeather